Airfield :
LOGIN :

Register | Disclaimer

   EN    FR    IT 

 










Legend :    VFR   Marginal VFR   IFR   Intensive IFR   Very Intensive IFR
Visi :
Ceiling :
>= 8 km
>= 3000ft
5 to 8 km
1000 to 3000 ft
1500m to 5 km
500 to 1000 ft
800 to 1500m
200 to 500 ft
< 800m
< 200 ft
Symbols :   Thunderstorms  Fog  Heavy snow  Heavy precipitations  Wind > 20 kt
SIGMETs :     Misc.  Thunderstorms  Icing  Turbulence  Mountain Waves  Volcanic Ashes







- Airport Elevation : 162 ft
- IATA code : BOD
- Download approach charts


LFBD - Bordeaux / Merignac

CURRENT METAR :
  • 170530Z AUTO 00000KT 9999 0500 R23/P2300 R05/0500D R29/P2300 BCFG NSC 15/14 Q1021 TEMPO 0450 BCFG

EXPIRED METARs :
  • 170500Z AUTO 19002KT 9999 0650 R23/1400U R05/0750D R29/P2300 BCFG NSC 15/14 Q1021 TEMPO 0450 BCFG BKN005
  • 170430Z AUTO 17001KT 9999 0750 R23/P2300 R05/1100D R29/P2300 BCFG NSC 15/14 Q1021 TEMPO 0450 BCFG BKN005
  • 170400Z AUTO 00000KT 9999 0450 R23/1500U R05/0450D R29/P2300 BCFG NSC 15/14 Q1021 TEMPO 3500 BR BKN005
  • 170330Z AUTO 00000KT 9999 0500 R23/P2300 R05/0500D R29/2000D BCFG NSC 15/14 Q1021 TEMPO 3500 BR BKN005
  • 170300Z AUTO 00000KT CAVOK 15/14 Q1021 TEMPO 3500 BR BKN005

TAF TAF LFBD
Valid from the 17 at 06:00 until the 18 at 12:00 UTC


170500Z 1706/1812 VRB02KT 0500 BCFG NSC
BECMG 1706/1707 CAVOK
BECMG 1707/1709 27005KT
PROB40 1803/1807 BKN005
BECMG 1807/1809 BKN020 TX29/1715Z TN17/1706Z
ATIS : +33 5 57 92 81 04
No reported NOTAMs for that airfield.



MET'MAP, your aeronautical weather chart ! - Copyright ORBIFLY December 2007 - Disclaimer

ORBIFLY MET'MAP TEAM :

Programming & Development : Alexandra Zaïnal
Concept & Development : Baudouin d'Aumeries
Co-Development & Prog : Marc-Olivier Méhu
Technical & hardware support : Manuel Goepfert

Contact : metmap@orbifly.com




SOURCES & CREDITS :

   NOAA